sensor_id;sensor_type;location;lat;lon;timestamp;temperature;humidity
19920;DHT22;10122;50.074;19.920;2023-04-24T00:01:43;15.10;91.90
19920;DHT22;10122;50.074;19.920;2023-04-24T00:04:09;14.90;93.00
19920;DHT22;10122;50.074;19.920;2023-04-24T00:06:36;14.90;93.50
19920;DHT22;10122;50.074;19.920;2023-04-24T00:09:05;14.70;94.30
19920;DHT22;10122;50.074;19.920;2023-04-24T00:11:31;14.60;95.60
19920;DHT22;10122;50.074;19.920;2023-04-24T00:13:57;14.50;96.40
19920;DHT22;10122;50.074;19.920;2023-04-24T00:16:23;14.40;97.60
19920;DHT22;10122;50.074;19.920;2023-04-24T00:18:49;14.40;98.70
19920;DHT22;10122;50.074;19.920;2023-04-24T00:21:15;14.50;99.40
19920;DHT22;10122;50.074;19.920;2023-04-24T00:23:44;14.50;99.30
19920;DHT22;10122;50.074;19.920;2023-04-24T00:26:10;14.60;99.70
19920;DHT22;10122;50.074;19.920;2023-04-24T00:28:35;14.70;99.90
19920;DHT22;10122;50.074;19.920;2023-04-24T00:31:01;14.60;99.90
19920;DHT22;10122;50.074;19.920;2023-04-24T00:33:27;14.50;99.90
19920;DHT22;10122;50.074;19.920;2023-04-24T00:35:53;14.40;99.90
19920;DHT22;10122;50.074;19.920;2023-04-24T00:38:19;14.30;99.90
19920;DHT22;10122;50.074;19.920;2023-04-24T00:40:44;14.30;99.90
19920;DHT22;10122;50.074;19.920;2023-04-24T00:43:11;14.20;99.90
19920;DHT22;10122;50.074;19.920;2023-04-24T00:45:37;14.10;99.90
19920;DHT22;10122;50.074;19.920;2023-04-24T00:48:03;14.10;99.90
19920;DHT22;10122;50.074;19.920;2023-04-24T00:50:30;14.20;99.90
19920;DHT22;10122;50.074;19.920;2023-04-24T00:52:56;14.20;99.90
19920;DHT22;10122;50.074;19.920;2023-04-24T00:55:22;14.30;99.90
19920;DHT22;10122;50.074;19.920;2023-04-24T00:57:48;14.20;99.90
19920;DHT22;10122;50.074;19.920;2023-04-24T01:00:15;14.20;99.90
19920;DHT22;10122;50.074;19.920;2023-04-24T01:02:44;14.20;99.90
19920;DHT22;10122;50.074;19.920;2023-04-24T01:05:11;14.20;99.90
19920;DHT22;10122;50.074;19.920;2023-04-24T01:07:39;14.10;99.90
19920;DHT22;10122;50.074;19.920;2023-04-24T01:10:07;13.80;99.90
19920;DHT22;10122;50.074;19.920;2023-04-24T01:12:34;13.60;99.90
19920;DHT22;10122;50.074;19.920;2023-04-24T01:15:00;13.40;99.90
19920;DHT22;10122;50.074;19.920;2023-04-24T01:17:26;13.40;99.90
19920;DHT22;10122;50.074;19.920;2023-04-24T01:19:52;13.50;99.90
19920;DHT22;10122;50.074;19.920;2023-04-24T01:22:22;13.50;99.90
19920;DHT22;10122;50.074;19.920;2023-04-24T01:24:48;13.60;99.90
19920;DHT22;10122;50.074;19.920;2023-04-24T01:27:14;13.60;99.90
19920;DHT22;10122;50.074;19.920;2023-04-24T01:29:40;13.50;99.90
19920;DHT22;10122;50.074;19.920;2023-04-24T01:32:06;13.40;99.90
19920;DHT22;10122;50.074;19.920;2023-04-24T01:34:33;13.40;99.90
19920;DHT22;10122;50.074;19.920;2023-04-24T01:37:00;13.30;99.90
19920;DHT22;10122;50.074;19.920;2023-04-24T01:39:26;13.20;99.90
19920;DHT22;10122;50.074;19.920;2023-04-24T01:41:54;13.30;99.90
19920;DHT22;10122;50.074;19.920;2023-04-24T01:44:21;13.30;99.90
19920;DHT22;10122;50.074;19.920;2023-04-24T01:46:47;13.30;99.90
19920;DHT22;10122;50.074;19.920;2023-04-24T01:49:13;13.20;99.90
19920;DHT22;10122;50.074;19.920;2023-04-24T01:51:39;13.20;99.90
19920;DHT22;10122;50.074;19.920;2023-04-24T01:54:04;13.30;99.90
19920;DHT22;10122;50.074;19.920;2023-04-24T01:56:33;13.20;99.90
19920;DHT22;10122;50.074;19.920;2023-04-24T01:59:02;13.20;99.90
19920;DHT22;10122;50.074;19.920;2023-04-24T02:01:36;13.20;99.90
19920;DHT22;10122;50.074;19.920;2023-04-24T02:04:03;13.10;99.90
19920;DHT22;10122;50.074;19.920;2023-04-24T02:06:28;13.00;99.90
19920;DHT22;10122;50.074;19.920;2023-04-24T02:08:54;13.00;99.90
19920;DHT22;10122;50.074;19.920;2023-04-24T02:11:20;12.80;99.90
19920;DHT22;10122;50.074;19.920;2023-04-24T02:13:46;12.70;99.90
19920;DHT22;10122;50.074;19.920;2023-04-24T02:16:11;12.70;99.90
19920;DHT22;10122;50.074;19.920;2023-04-24T02:18:37;12.70;99.90
19920;DHT22;10122;50.074;19.920;2023-04-24T02:21:03;12.70;99.90
19920;DHT22;10122;50.074;19.920;2023-04-24T02:23:28;12.80;99.90
19920;DHT22;10122;50.074;19.920;2023-04-24T02:25:54;12.70;99.90
19920;DHT22;10122;50.074;19.920;2023-04-24T02:28:21;12.70;99.90
19920;DHT22;10122;50.074;19.920;2023-04-24T02:30:46;12.80;99.90
19920;DHT22;10122;50.074;19.920;2023-04-24T02:33:12;12.80;99.90
19920;DHT22;10122;50.074;19.920;2023-04-24T02:35:38;12.60;99.90
19920;DHT22;10122;50.074;19.920;2023-04-24T02:38:03;12.40;99.90
19920;DHT22;10122;50.074;19.920;2023-04-24T02:40:29;12.40;99.90
19920;DHT22;10122;50.074;19.920;2023-04-24T02:42:55;12.40;99.90
19920;DHT22;10122;50.074;19.920;2023-04-24T02:45:21;12.40;99.90
19920;DHT22;10122;50.074;19.920;2023-04-24T02:47:47;12.30;99.90
19920;DHT22;10122;50.074;19.920;2023-04-24T02:50:12;12.20;99.90
19920;DHT22;10122;50.074;19.920;2023-04-24T02:52:38;12.20;99.90
19920;DHT22;10122;50.074;19.920;2023-04-24T02:55:05;12.20;99.90
19920;DHT22;10122;50.074;19.920;2023-04-24T02:57:31;12.10;99.90
19920;DHT22;10122;50.074;19.920;2023-04-24T02:59:56;11.90;99.90
19920;DHT22;10122;50.074;19.920;2023-04-24T03:02:22;11.80;99.90
19920;DHT22;10122;50.074;19.920;2023-04-24T03:04:48;11.70;99.90
19920;DHT22;10122;50.074;19.920;2023-04-24T03:07:14;11.80;99.90
19920;DHT22;10122;50.074;19.920;2023-04-24T03:09:40;11.80;99.90
19920;DHT22;10122;50.074;19.920;2023-04-24T03:12:06;11.90;99.90
19920;DHT22;10122;50.074;19.920;2023-04-24T03:14:32;11.90;99.90
19920;DHT22;10122;50.074;19.920;2023-04-24T03:16:58;12.00;99.90
19920;DHT22;10122;50.074;19.920;2023-04-24T03:19:24;12.00;99.90
19920;DHT22;10122;50.074;19.920;2023-04-24T03:21:49;12.00;99.90
19920;DHT22;10122;50.074;19.920;2023-04-24T03:24:15;12.00;99.90
19920;DHT22;10122;50.074;19.920;2023-04-24T03:26:41;11.90;99.90
19920;DHT22;10122;50.074;19.920;2023-04-24T03:29:07;11.90;99.90
19920;DHT22;10122;50.074;19.920;2023-04-24T03:31:33;11.90;99.90
19920;DHT22;10122;50.074;19.920;2023-04-24T03:33:58;11.80;99.90
19920;DHT22;10122;50.074;19.920;2023-04-24T03:36:24;11.90;99.90
19920;DHT22;10122;50.074;19.920;2023-04-24T03:38:51;11.90;99.90
19920;DHT22;10122;50.074;19.920;2023-04-24T03:41:17;11.80;99.90
19920;DHT22;10122;50.074;19.920;2023-04-24T03:43:42;11.90;99.90
19920;DHT22;10122;50.074;19.920;2023-04-24T03:46:08;11.90;99.90
19920;DHT22;10122;50.074;19.920;2023-04-24T03:48:35;11.80;99.90
19920;DHT22;10122;50.074;19.920;2023-04-24T03:51:01;11.70;99.90
19920;DHT22;10122;50.074;19.920;2023-04-24T03:53:26;11.80;99.90
19920;DHT22;10122;50.074;19.920;2023-04-24T03:55:53;11.80;99.90
19920;DHT22;10122;50.074;19.920;2023-04-24T03:58:18;11.80;99.90
19920;DHT22;10122;50.074;19.920;2023-04-24T04:00:44;11.90;99.90
19920;DHT22;10122;50.074;19.920;2023-04-24T04:03:13;11.90;99.90
19920;DHT22;10122;50.074;19.920;2023-04-24T04:05:40;11.70;99.90
19920;DHT22;10122;50.074;19.920;2023-04-24T04:08:05;11.50;99.90
19920;DHT22;10122;50.074;19.920;2023-04-24T04:10:31;11.60;99.90
19920;DHT22;10122;50.074;19.920;2023-04-24T04:12:57;11.60;99.90
19920;DHT22;10122;50.074;19.920;2023-04-24T04:15:22;11.70;99.90
19920;DHT22;10122;50.074;19.920;2023-04-24T04:17:48;11.70;99.90
19920;DHT22;10122;50.074;19.920;2023-04-24T04:20:14;11.70;99.90
19920;DHT22;10122;50.074;19.920;2023-04-24T04:22:39;11.80;99.90
19920;DHT22;10122;50.074;19.920;2023-04-24T04:25:05;11.80;99.90
19920;DHT22;10122;50.074;19.920;2023-04-24T04:27:32;11.90;99.90
19920;DHT22;10122;50.074;19.920;2023-04-24T04:30:01;12.00;99.90
19920;DHT22;10122;50.074;19.920;2023-04-24T04:32:31;12.00;99.90
19920;DHT22;10122;50.074;19.920;2023-04-24T04:34:58;11.90;99.90
19920;DHT22;10122;50.074;19.920;2023-04-24T04:37:32;12.00;99.90
19920;DHT22;10122;50.074;19.920;2023-04-24T04:39:59;12.00;99.90
19920;DHT22;10122;50.074;19.920;2023-04-24T04:42:25;12.00;99.90
19920;DHT22;10122;50.074;19.920;2023-04-24T04:44:52;12.00;99.90
19920;DHT22;10122;50.074;19.920;2023-04-24T04:47:21;12.10;99.90
19920;DHT22;10122;50.074;19.920;2023-04-24T04:49:50;12.20;99.90
19920;DHT22;10122;50.074;19.920;2023-04-24T04:52:18;12.30;99.90
19920;DHT22;10122;50.074;19.920;2023-04-24T04:54:43;12.40;99.90
19920;DHT22;10122;50.074;19.920;2023-04-24T04:57:10;12.50;99.90
19920;DHT22;10122;50.074;19.920;2023-04-24T04:59:36;12.70;99.90
19920;DHT22;10122;50.074;19.920;2023-04-24T05:02:02;12.70;99.90
19920;DHT22;10122;50.074;19.920;2023-04-24T05:04:28;12.80;99.90
19920;DHT22;10122;50.074;19.920;2023-04-24T05:06:54;12.80;99.90
19920;DHT22;10122;50.074;19.920;2023-04-24T05:09:20;12.90;99.90
19920;DHT22;10122;50.074;19.920;2023-04-24T05:11:45;13.00;99.90
19920;DHT22;10122;50.074;19.920;2023-04-24T05:14:11;13.10;99.90
19920;DHT22;10122;50.074;19.920;2023-04-24T05:16:38;13.00;99.90
19920;DHT22;10122;50.074;19.920;2023-04-24T05:19:04;13.10;99.90
19920;DHT22;10122;50.074;19.920;2023-04-24T05:21:30;13.20;99.90
19920;DHT22;10122;50.074;19.920;2023-04-24T05:23:56;13.30;99.90
19920;DHT22;10122;50.074;19.920;2023-04-24T05:26:22;13.40;99.90
19920;DHT22;10122;50.074;19.920;2023-04-24T05:28:48;13.40;99.90
19920;DHT22;10122;50.074;19.920;2023-04-24T05:31:14;13.50;99.90
19920;DHT22;10122;50.074;19.920;2023-04-24T05:33:39;13.50;99.90
19920;DHT22;10122;50.074;19.920;2023-04-24T05:36:06;13.50;99.90
19920;DHT22;10122;50.074;19.920;2023-04-24T05:38:32;13.40;99.90
19920;DHT22;10122;50.074;19.920;2023-04-24T05:40:58;13.50;99.90
19920;DHT22;10122;50.074;19.920;2023-04-24T05:43:23;13.60;99.90
19920;DHT22;10122;50.074;19.920;2023-04-24T05:45:49;13.70;99.90
19920;DHT22;10122;50.074;19.920;2023-04-24T05:48:15;13.80;99.90
19920;DHT22;10122;50.074;19.920;2023-04-24T05:50:41;13.80;99.90
19920;DHT22;10122;50.074;19.920;2023-04-24T05:53:07;13.80;99.90
19920;DHT22;10122;50.074;19.920;2023-04-24T05:55:33;13.80;99.90
19920;DHT22;10122;50.074;19.920;2023-04-24T05:57:59;13.80;99.90
19920;DHT22;10122;50.074;19.920;2023-04-24T06:00:25;13.90;99.90
19920;DHT22;10122;50.074;19.920;2023-04-24T06:02:52;14.10;99.90
19920;DHT22;10122;50.074;19.920;2023-04-24T06:05:20;14.20;99.90
19920;DHT22;10122;50.074;19.920;2023-04-24T06:07:46;14.50;99.90
19920;DHT22;10122;50.074;19.920;2023-04-24T06:10:13;14.70;99.90
19920;DHT22;10122;50.074;19.920;2023-04-24T06:12:39;14.90;99.90
19920;DHT22;10122;50.074;19.920;2023-04-24T06:15:05;15.00;99.90
19920;DHT22;10122;50.074;19.920;2023-04-24T06:17:31;15.20;99.90
19920;DHT22;10122;50.074;19.920;2023-04-24T06:19:57;17.00;99.90
19920;DHT22;10122;50.074;19.920;2023-04-24T06:22:23;19.70;95.60
19920;DHT22;10122;50.074;19.920;2023-04-24T06:24:49;21.70;79.50
19920;DHT22;10122;50.074;19.920;2023-04-24T06:27:15;22.40;72.20
19920;DHT22;10122;50.074;19.920;2023-04-24T06:29:40;23.30;65.30
19920;DHT22;10122;50.074;19.920;2023-04-24T06:32:06;23.70;60.70
19920;DHT22;10122;50.074;19.920;2023-04-24T06:34:32;24.30;58.00
19920;DHT22;10122;50.074;19.920;2023-04-24T06:36:59;25.10;56.00
19920;DHT22;10122;50.074;19.920;2023-04-24T06:39:25;25.40;53.20
19920;DHT22;10122;50.074;19.920;2023-04-24T06:41:51;25.20;53.10
19920;DHT22;10122;50.074;19.920;2023-04-24T06:44:16;25.60;52.20
19920;DHT22;10122;50.074;19.920;2023-04-24T06:46:42;26.00;50.60
19920;DHT22;10122;50.074;19.920;2023-04-24T06:49:08;26.60;49.90
19920;DHT22;10122;50.074;19.920;2023-04-24T06:51:34;27.00;48.40
19920;DHT22;10122;50.074;19.920;2023-04-24T06:53:59;26.80;46.50
19920;DHT22;10122;50.074;19.920;2023-04-24T06:56:26;26.50;47.10
19920;DHT22;10122;50.074;19.920;2023-04-24T06:58:51;26.90;47.00
19920;DHT22;10122;50.074;19.920;2023-04-24T07:01:17;27.00;47.40
19920;DHT22;10122;50.074;19.920;2023-04-24T07:03:43;27.00;45.70
19920;DHT22;10122;50.074;19.920;2023-04-24T07:06:09;27.30;46.00
19920;DHT22;10122;50.074;19.920;2023-04-24T07:08:36;27.60;45.20
19920;DHT22;10122;50.074;19.920;2023-04-24T07:11:02;27.80;44.50
19920;DHT22;10122;50.074;19.920;2023-04-24T07:13:28;28.50;43.60
19920;DHT22;10122;50.074;19.920;2023-04-24T07:15:54;29.20;42.90
19920;DHT22;10122;50.074;19.920;2023-04-24T07:18:21;29.20;42.00
19920;DHT22;10122;50.074;19.920;2023-04-24T07:20:47;29.00;42.50
19920;DHT22;10122;50.074;19.920;2023-04-24T07:23:15;29.20;42.00
19920;DHT22;10122;50.074;19.920;2023-04-24T07:25:41;29.10;41.40
19920;DHT22;10122;50.074;19.920;2023-04-24T07:28:07;29.10;41.50
19920;DHT22;10122;50.074;19.920;2023-04-24T07:30:33;28.80;41.80
19920;DHT22;10122;50.074;19.920;2023-04-24T07:32:59;28.70;41.90
19920;DHT22;10122;50.074;19.920;2023-04-24T07:35:26;28.80;41.20
19920;DHT22;10122;50.074;19.920;2023-04-24T07:37:53;28.40;41.60
19920;DHT22;10122;50.074;19.920;2023-04-24T07:40:19;28.10;43.00
19920;DHT22;10122;50.074;19.920;2023-04-24T07:42:45;28.30;42.60
19920;DHT22;10122;50.074;19.920;2023-04-24T07:45:10;28.50;41.90
19920;DHT22;10122;50.074;19.920;2023-04-24T07:47:36;28.70;41.70
19920;DHT22;10122;50.074;19.920;2023-04-24T07:50:03;28.70;42.50
19920;DHT22;10122;50.074;19.920;2023-04-24T07:52:29;28.50;42.40
19920;DHT22;10122;50.074;19.920;2023-04-24T07:54:55;28.50;41.50
19920;DHT22;10122;50.074;19.920;2023-04-24T07:57:25;28.60;41.10
19920;DHT22;10122;50.074;19.920;2023-04-24T07:59:51;28.60;41.10
19920;DHT22;10122;50.074;19.920;2023-04-24T08:02:17;28.00;41.10
19920;DHT22;10122;50.074;19.920;2023-04-24T08:04:43;28.00;41.30
19920;DHT22;10122;50.074;19.920;2023-04-24T08:07:08;28.10;40.90
19920;DHT22;10122;50.074;19.920;2023-04-24T08:09:34;28.20;41.70
19920;DHT22;10122;50.074;19.920;2023-04-24T08:12:00;28.60;41.30
19920;DHT22;10122;50.074;19.920;2023-04-24T08:14:26;28.60;40.80
19920;DHT22;10122;50.074;19.920;2023-04-24T08:16:54;28.70;41.10
19920;DHT22;10122;50.074;19.920;2023-04-24T08:19:25;28.90;40.80
19920;DHT22;10122;50.074;19.920;2023-04-24T08:21:51;28.90;41.20
19920;DHT22;10122;50.074;19.920;2023-04-24T08:24:16;28.80;40.00
19920;DHT22;10122;50.074;19.920;2023-04-24T08:26:42;28.40;41.20
19920;DHT22;10122;50.074;19.920;2023-04-24T08:29:09;28.20;40.40
19920;DHT22;10122;50.074;19.920;2023-04-24T08:31:35;27.30;39.50
19920;DHT22;10122;50.074;19.920;2023-04-24T08:34:00;26.90;40.40
19920;DHT22;10122;50.074;19.920;2023-04-24T08:36:26;27.10;40.20
19920;DHT22;10122;50.074;19.920;2023-04-24T08:38:52;27.30;40.80
19920;DHT22;10122;50.074;19.920;2023-04-24T08:41:18;27.60;40.90
19920;DHT22;10122;50.074;19.920;2023-04-24T08:43:47;27.40;40.60
19920;DHT22;10122;50.074;19.920;2023-04-24T08:46:15;27.30;41.50
19920;DHT22;10122;50.074;19.920;2023-04-24T08:48:42;27.50;41.50
19920;DHT22;10122;50.074;19.920;2023-04-24T08:51:08;27.60;40.50
19920;DHT22;10122;50.074;19.920;2023-04-24T08:53:35;27.40;40.40
19920;DHT22;10122;50.074;19.920;2023-04-24T08:56:01;27.20;40.90
19920;DHT22;10122;50.074;19.920;2023-04-24T08:58:28;26.30;39.90
19920;DHT22;10122;50.074;19.920;2023-04-24T09:00:58;25.70;40.30
19920;DHT22;10122;50.074;19.920;2023-04-24T09:03:24;25.80;40.50
19920;DHT22;10122;50.074;19.920;2023-04-24T09:05:55;25.90;39.30
19920;DHT22;10122;50.074;19.920;2023-04-24T09:08:24;26.00;39.90
19920;DHT22;10122;50.074;19.920;2023-04-24T09:10:51;26.20;40.60
19920;DHT22;10122;50.074;19.920;2023-04-24T09:13:17;26.40;40.00
19920;DHT22;10122;50.074;19.920;2023-04-24T09:15:43;26.30;38.90
19920;DHT22;10122;50.074;19.920;2023-04-24T09:18:10;26.00;39.40
19920;DHT22;10122;50.074;19.920;2023-04-24T09:23:29;26.10;39.50
19920;DHT22;10122;50.074;19.920;2023-04-24T09:25:56;26.20;39.40
19920;DHT22;10122;50.074;19.920;2023-04-24T09:28:39;26.50;39.60
19920;DHT22;10122;50.074;19.920;2023-04-24T09:31:14;27.00;39.30
19920;DHT22;10122;50.074;19.920;2023-04-24T09:34:04;27.40;39.40
19920;DHT22;10122;50.074;19.920;2023-04-24T09:36:40;27.80;39.10
19920;DHT22;10122;50.074;19.920;2023-04-24T09:39:11;27.40;37.70
19920;DHT22;10122;50.074;19.920;2023-04-24T09:41:44;26.60;37.50
19920;DHT22;10122;50.074;19.920;2023-04-24T09:44:17;26.60;38.80
19920;DHT22;10122;50.074;19.920;2023-04-24T09:46:46;26.90;38.90
19920;DHT22;10122;50.074;19.920;2023-04-24T09:49:16;27.00;38.40
19920;DHT22;10122;50.074;19.920;2023-04-24T09:51:42;27.10;38.40
19920;DHT22;10122;50.074;19.920;2023-04-24T09:54:19;27.00;38.50
19920;DHT22;10122;50.074;19.920;2023-04-24T09:56:50;26.90;38.00
19920;DHT22;10122;50.074;19.920;2023-04-24T09:59:17;26.80;37.50
19920;DHT22;10122;50.074;19.920;2023-04-24T10:01:53;26.50;38.10
19920;DHT22;10122;50.074;19.920;2023-04-24T10:04:27;26.20;37.50
19920;DHT22;10122;50.074;19.920;2023-04-24T10:06:55;26.30;37.60
19920;DHT22;10122;50.074;19.920;2023-04-24T10:09:23;26.40;37.20
19920;DHT22;10122;50.074;19.920;2023-04-24T10:11:51;26.40;36.50
19920;DHT22;10122;50.074;19.920;2023-04-24T10:14:21;26.50;36.00
19920;DHT22;10122;50.074;19.920;2023-04-24T10:16:48;26.30;35.50
19920;DHT22;10122;50.074;19.920;2023-04-24T10:19:15;26.10;34.50
19920;DHT22;10122;50.074;19.920;2023-04-24T10:21:42;25.60;34.50
19920;DHT22;10122;50.074;19.920;2023-04-24T10:24:16;24.90;35.50
19920;DHT22;10122;50.074;19.920;2023-04-24T10:26:42;24.80;35.40
19920;DHT22;10122;50.074;19.920;2023-04-24T10:29:08;24.80;36.60
19920;DHT22;10122;50.074;19.920;2023-04-24T10:31:37;24.60;37.00
19920;DHT22;10122;50.074;19.920;2023-04-24T10:34:05;24.80;37.60
19920;DHT22;10122;50.074;19.920;2023-04-24T10:36:33;25.00;37.70
19920;DHT22;10122;50.074;19.920;2023-04-24T10:39:01;25.10;38.00
19920;DHT22;10122;50.074;19.920;2023-04-24T10:41:30;25.10;38.20
19920;DHT22;10122;50.074;19.920;2023-04-24T10:46:31;24.80;39.20
19920;DHT22;10122;50.074;19.920;2023-04-24T10:48:57;25.20;39.10
19920;DHT22;10122;50.074;19.920;2023-04-24T10:51:24;25.20;38.60
19920;DHT22;10122;50.074;19.920;2023-04-24T10:53:51;25.30;38.50
19920;DHT22;10122;50.074;19.920;2023-04-24T10:56:17;25.20;38.50
19920;DHT22;10122;50.074;19.920;2023-04-24T10:58:49;24.90;38.50
19920;DHT22;10122;50.074;19.920;2023-04-24T11:01:28;25.00;38.50
19920;DHT22;10122;50.074;19.920;2023-04-24T11:03:59;25.10;38.10
19920;DHT22;10122;50.074;19.920;2023-04-24T11:06:32;25.20;38.00
19920;DHT22;10122;50.074;19.920;2023-04-24T11:09:08;25.00;38.50
19920;DHT22;10122;50.074;19.920;2023-04-24T11:11:35;24.70;38.70
19920;DHT22;10122;50.074;19.920;2023-04-24T11:14:03;24.80;39.50
19920;DHT22;10122;50.074;19.920;2023-04-24T11:16:53;25.00;39.10
19920;DHT22;10122;50.074;19.920;2023-04-24T11:19:25;25.20;38.70
19920;DHT22;10122;50.074;19.920;2023-04-24T11:29:49;25.30;38.80
19920;DHT22;10122;50.074;19.920;2023-04-24T11:32:36;25.60;39.10
19920;DHT22;10122;50.074;19.920;2023-04-24T11:35:03;25.70;38.80
19920;DHT22;10122;50.074;19.920;2023-04-24T11:37:36;25.90;38.70
19920;DHT22;10122;50.074;19.920;2023-04-24T11:40:03;25.90;38.80
19920;DHT22;10122;50.074;19.920;2023-04-24T11:42:37;25.80;38.70
19920;DHT22;10122;50.074;19.920;2023-04-24T11:45:08;25.60;39.20
19920;DHT22;10122;50.074;19.920;2023-04-24T11:47:34;25.10;39.60
19920;DHT22;10122;50.074;19.920;2023-04-24T11:50:00;24.90;39.90
19920;DHT22;10122;50.074;19.920;2023-04-24T11:52:27;24.80;40.20
19920;DHT22;10122;50.074;19.920;2023-04-24T11:54:53;24.40;40.70
19920;DHT22;10122;50.074;19.920;2023-04-24T11:57:24;24.40;41.30
19920;DHT22;10122;50.074;19.920;2023-04-24T11:59:51;24.50;41.20
19920;DHT22;10122;50.074;19.920;2023-04-24T12:02:24;24.60;40.70
19920;DHT22;10122;50.074;19.920;2023-04-24T12:04:54;24.30;40.60
19920;DHT22;10122;50.074;19.920;2023-04-24T12:07:21;24.30;41.00
19920;DHT22;10122;50.074;19.920;2023-04-24T12:09:58;24.50;40.60
19920;DHT22;10122;50.074;19.920;2023-04-24T12:12:26;24.80;40.60
19920;DHT22;10122;50.074;19.920;2023-04-24T12:14:57;25.10;40.30
19920;DHT22;10122;50.074;19.920;2023-04-24T12:17:31;25.00;39.60
19920;DHT22;10122;50.074;19.920;2023-04-24T12:20:05;24.60;40.70
19920;DHT22;10122;50.074;19.920;2023-04-24T12:22:54;24.70;40.60
19920;DHT22;10122;50.074;19.920;2023-04-24T12:25:22;24.80;40.50
19920;DHT22;10122;50.074;19.920;2023-04-24T12:28:09;24.80;40.40
19920;DHT22;10122;50.074;19.920;2023-04-24T12:30:49;24.80;40.50
19920;DHT22;10122;50.074;19.920;2023-04-24T12:33:19;24.70;40.00
19920;DHT22;10122;50.074;19.920;2023-04-24T12:35:45;24.70;40.50
19920;DHT22;10122;50.074;19.920;2023-04-24T12:38:15;24.70;39.80
19920;DHT22;10122;50.074;19.920;2023-04-24T12:40:42;24.60;39.50
19920;DHT22;10122;50.074;19.920;2023-04-24T12:43:19;24.60;39.50
19920;DHT22;10122;50.074;19.920;2023-04-24T12:45:47;24.50;44.30
19920;DHT22;10122;50.074;19.920;2023-04-24T12:48:13;24.30;48.10
19920;DHT22;10122;50.074;19.920;2023-04-24T12:50:42;24.10;49.80
19920;DHT22;10122;50.074;19.920;2023-04-24T12:53:08;23.70;51.10
19920;DHT22;10122;50.074;19.920;2023-04-24T12:55:34;23.50;51.90
19920;DHT22;10122;50.074;19.920;2023-04-24T12:58:00;23.30;52.30
19920;DHT22;10122;50.074;19.920;2023-04-24T13:00:27;23.10;52.90
19920;DHT22;10122;50.074;19.920;2023-04-24T13:02:52;23.10;53.20
19920;DHT22;10122;50.074;19.920;2023-04-24T13:05:18;22.70;54.20
19920;DHT22;10122;50.074;19.920;2023-04-24T13:07:44;22.60;54.90
19920;DHT22;10122;50.074;19.920;2023-04-24T13:10:10;22.60;55.40
19920;DHT22;10122;50.074;19.920;2023-04-24T13:12:36;22.60;55.90
19920;DHT22;10122;50.074;19.920;2023-04-24T13:15:02;22.60;56.30
19920;DHT22;10122;50.074;19.920;2023-04-24T13:17:28;22.60;56.30
19920;DHT22;10122;50.074;19.920;2023-04-24T13:19:55;22.60;56.60
19920;DHT22;10122;50.074;19.920;2023-04-24T13:22:20;22.50;56.80
19920;DHT22;10122;50.074;19.920;2023-04-24T13:24:46;22.20;57.70
19920;DHT22;10122;50.074;19.920;2023-04-24T13:27:14;22.20;58.00
19920;DHT22;10122;50.074;19.920;2023-04-24T13:29:40;22.30;58.10
19920;DHT22;10122;50.074;19.920;2023-04-24T13:32:06;22.30;57.90
19920;DHT22;10122;50.074;19.920;2023-04-24T13:34:32;22.30;57.60
19920;DHT22;10122;50.074;19.920;2023-04-24T13:36:58;22.20;57.20
19920;DHT22;10122;50.074;19.920;2023-04-24T13:39:24;22.20;57.20
19920;DHT22;10122;50.074;19.920;2023-04-24T13:41:51;21.90;57.50
19920;DHT22;10122;50.074;19.920;2023-04-24T13:44:18;21.90;57.60
19920;DHT22;10122;50.074;19.920;2023-04-24T13:46:45;21.70;57.70
19920;DHT22;10122;50.074;19.920;2023-04-24T13:49:12;21.70;57.50
19920;DHT22;10122;50.074;19.920;2023-04-24T13:51:38;21.60;57.40
19920;DHT22;10122;50.074;19.920;2023-04-24T13:54:05;21.50;57.60
19920;DHT22;10122;50.074;19.920;2023-04-24T13:56:31;21.40;57.80
19920;DHT22;10122;50.074;19.920;2023-04-24T13:58:56;21.30;58.00
19920;DHT22;10122;50.074;19.920;2023-04-24T14:01:23;21.20;58.20
19920;DHT22;10122;50.074;19.920;2023-04-24T14:03:51;21.00;58.40
19920;DHT22;10122;50.074;19.920;2023-04-24T14:06:17;21.00;58.60
19920;DHT22;10122;50.074;19.920;2023-04-24T14:08:43;21.00;58.60
19920;DHT22;10122;50.074;19.920;2023-04-24T14:11:09;21.10;58.70
19920;DHT22;10122;50.074;19.920;2023-04-24T14:13:36;21.00;58.90
19920;DHT22;10122;50.074;19.920;2023-04-24T14:16:03;21.10;59.10
19920;DHT22;10122;50.074;19.920;2023-04-24T14:18:29;21.10;59.20
19920;DHT22;10122;50.074;19.920;2023-04-24T14:20:55;21.10;59.40
19920;DHT22;10122;50.074;19.920;2023-04-24T14:23:21;20.90;59.40
19920;DHT22;10122;50.074;19.920;2023-04-24T14:25:47;20.80;59.50
19920;DHT22;10122;50.074;19.920;2023-04-24T14:28:16;20.90;59.50
19920;DHT22;10122;50.074;19.920;2023-04-24T14:30:42;20.90;59.50
19920;DHT22;10122;50.074;19.920;2023-04-24T14:33:08;21.00;59.30
19920;DHT22;10122;50.074;19.920;2023-04-24T14:35:34;21.00;59.30
19920;DHT22;10122;50.074;19.920;2023-04-24T14:38:00;21.10;59.30
19920;DHT22;10122;50.074;19.920;2023-04-24T14:40:26;21.10;59.40
19920;DHT22;10122;50.074;19.920;2023-04-24T14:42:52;21.10;59.50
19920;DHT22;10122;50.074;19.920;2023-04-24T14:45:18;21.10;59.60
19920;DHT22;10122;50.074;19.920;2023-04-24T14:47:45;21.10;59.70
19920;DHT22;10122;50.074;19.920;2023-04-24T14:50:10;21.10;59.80
19920;DHT22;10122;50.074;19.920;2023-04-24T14:52:38;21.00;60.10
19920;DHT22;10122;50.074;19.920;2023-04-24T14:55:04;21.10;60.40
19920;DHT22;10122;50.074;19.920;2023-04-24T14:57:30;21.10;60.80
19920;DHT22;10122;50.074;19.920;2023-04-24T14:59:56;21.10;60.90
19920;DHT22;10122;50.074;19.920;2023-04-24T15:02:21;21.00;61.10
19920;DHT22;10122;50.074;19.920;2023-04-24T15:04:47;21.00;61.50
19920;DHT22;10122;50.074;19.920;2023-04-24T15:07:13;21.00;61.60
19920;DHT22;10122;50.074;19.920;2023-04-24T15:09:38;21.00;61.10
19920;DHT22;10122;50.074;19.920;2023-04-24T15:12:04;20.80;60.60
19920;DHT22;10122;50.074;19.920;2023-04-24T15:14:30;20.60;61.10
19920;DHT22;10122;50.074;19.920;2023-04-24T15:16:56;20.60;61.80
19920;DHT22;10122;50.074;19.920;2023-04-24T15:19:21;20.40;62.80
19920;DHT22;10122;50.074;19.920;2023-04-24T15:21:47;20.30;63.20
19920;DHT22;10122;50.074;19.920;2023-04-24T15:24:13;20.20;63.90
19920;DHT22;10122;50.074;19.920;2023-04-24T15:26:39;20.20;63.90
19920;DHT22;10122;50.074;19.920;2023-04-24T15:29:04;20.30;64.20